sensor_id;sensor_type;location;lat;lon;timestamp;pressure;altitude;pressure_sealevel;temperature;humidity
55550;BME280;41397;49.972;18.944;2022-08-21T00:04:32;101461.74;;;22.54;90.81
55550;BME280;41397;49.972;18.944;2022-08-21T00:09:48;101458.57;;;22.57;90.24
55550;BME280;41397;49.972;18.944;2022-08-21T00:15:04;101453.30;;;22.62;90.04
55550;BME280;41397;49.972;18.944;2022-08-21T00:20:19;101443.18;;;22.61;89.77
55550;BME280;41397;49.972;18.944;2022-08-21T00:20:43;101433.48;;;22.57;90.01
55550;BME280;41397;49.972;18.944;2022-08-21T00:25:33;101432.10;;;22.53;90.18
55550;BME280;41397;49.972;18.944;2022-08-21T00:30:47;101427.38;;;22.53;90.06
55550;BME280;41397;49.972;18.944;2022-08-21T00:36:02;101414.52;;;22.52;90.23
55550;BME280;41397;49.972;18.944;2022-08-21T00:41:16;101408.84;;;22.46;90.22
55550;BME280;41397;49.972;18.944;2022-08-21T00:46:30;101401.13;;;22.48;90.06
55550;BME280;41397;49.972;18.944;2022-08-21T00:51:02;101396.24;;;22.50;90.38
55550;BME280;41397;49.972;18.944;2022-08-21T00:51:50;101394.70;;;22.47;90.71
55550;BME280;41397;49.972;18.944;2022-08-21T00:57:11;101385.87;;;22.44;91.38
55550;BME280;41397;49.972;18.944;2022-08-21T01:02:27;101371.25;;;22.42;91.60
55550;BME280;41397;49.972;18.944;2022-08-21T01:07:41;101375.39;;;22.46;91.53
55550;BME280;41397;49.972;18.944;2022-08-21T01:12:58;101376.05;;;22.48;91.61
55550;BME280;41397;49.972;18.944;2022-08-21T01:18:12;101368.20;;;22.51;91.08
55550;BME280;41397;49.972;18.944;2022-08-21T01:21:22;101362.41;;;22.53;90.81
55550;BME280;41397;49.972;18.944;2022-08-21T01:23:26;101362.23;;;22.54;90.59
55550;BME280;41397;49.972;18.944;2022-08-21T01:28:51;101355.20;;;22.58;90.74
55550;BME280;41397;49.972;18.944;2022-08-21T01:34:09;101338.47;;;22.58;90.58
55550;BME280;41397;49.972;18.944;2022-08-21T01:39:23;101331.00;;;22.59;90.56
55550;BME280;41397;49.972;18.944;2022-08-21T01:44:36;101338.68;;;22.57;90.74
55550;BME280;41397;49.972;18.944;2022-08-21T01:49:50;101346.75;;;22.52;90.59
55550;BME280;41397;49.972;18.944;2022-08-21T01:51:36;101342.41;;;22.49;90.61
55550;BME280;41397;49.972;18.944;2022-08-21T01:55:06;101325.87;;;22.48;90.58
55550;BME280;41397;49.972;18.944;2022-08-21T02:00:22;101321.36;;;22.47;90.64
55550;BME280;41397;49.972;18.944;2022-08-21T02:05:38;101318.75;;;22.45;90.89
55550;BME280;41397;49.972;18.944;2022-08-21T02:10:52;101310.21;;;22.47;90.98
55550;BME280;41397;49.972;18.944;2022-08-21T02:16:06;101302.71;;;22.47;91.26
55550;BME280;41397;49.972;18.944;2022-08-21T02:21:21;101295.41;;;22.46;91.32
55550;BME280;41397;49.972;18.944;2022-08-21T02:21:49;101306.57;;;22.46;91.51
55550;BME280;41397;49.972;18.944;2022-08-21T02:26:35;101298.28;;;22.38;92.31
55550;BME280;41397;49.972;18.944;2022-08-21T02:31:48;101295.98;;;22.42;92.58
55550;BME280;41397;49.972;18.944;2022-08-21T02:37:02;101296.27;;;22.47;92.61
55550;BME280;41397;49.972;18.944;2022-08-21T02:42:18;101283.70;;;22.51;92.61
55550;BME280;41397;49.972;18.944;2022-08-21T02:47:36;101281.38;;;22.54;92.18
55550;BME280;41397;49.972;18.944;2022-08-21T02:52:03;101289.35;;;22.57;92.43
55550;BME280;41397;49.972;18.944;2022-08-21T02:52:53;101293.20;;;22.56;92.30
55550;BME280;41397;49.972;18.944;2022-08-21T02:58:10;101300.11;;;22.60;91.66
55550;BME280;41397;49.972;18.944;2022-08-21T03:03:28;101312.13;;;22.61;91.36
55550;BME280;41397;49.972;18.944;2022-08-21T03:08:44;101316.84;;;22.60;91.28
55550;BME280;41397;49.972;18.944;2022-08-21T03:14:01;101312.34;;;22.59;91.21
55550;BME280;41397;49.972;18.944;2022-08-21T03:19:18;101332.24;;;22.56;91.30
55550;BME280;41397;49.972;18.944;2022-08-21T03:22:18;101329.16;;;22.51;91.37
55550;BME280;41397;49.972;18.944;2022-08-21T03:24:32;101332.98;;;22.50;91.23
55550;BME280;41397;49.972;18.944;2022-08-21T03:29:46;101336.16;;;22.47;91.79
55550;BME280;41397;49.972;18.944;2022-08-21T03:34:59;101332.69;;;22.45;91.92
55550;BME280;41397;49.972;18.944;2022-08-21T03:40:17;101348.55;;;22.45;91.93
55550;BME280;41397;49.972;18.944;2022-08-21T03:45:31;101350.48;;;22.44;92.50
55550;BME280;41397;49.972;18.944;2022-08-21T03:50:45;101344.91;;;22.44;92.62
55550;BME280;41397;49.972;18.944;2022-08-21T03:52:32;101340.41;;;22.43;92.80
55550;BME280;41397;49.972;18.944;2022-08-21T03:56:03;101339.71;;;22.41;93.37
55550;BME280;41397;49.972;18.944;2022-08-21T04:01:17;101347.31;;;22.47;93.43
55550;BME280;41397;49.972;18.944;2022-08-21T04:06:31;101345.67;;;22.53;93.24
55550;BME280;41397;49.972;18.944;2022-08-21T04:11:45;101348.08;;;22.56;93.09
55550;BME280;41397;49.972;18.944;2022-08-21T04:17:00;101362.31;;;22.61;92.83
55550;BME280;41397;49.972;18.944;2022-08-21T04:22:15;101342.68;;;22.39;93.08
55550;BME280;41397;49.972;18.944;2022-08-21T04:22:46;101353.66;;;22.41;93.40
55550;BME280;41397;49.972;18.944;2022-08-21T04:27:29;101347.70;;;22.44;93.00
55550;BME280;41397;49.972;18.944;2022-08-21T04:32:45;101318.49;;;22.40;93.21
55550;BME280;41397;49.972;18.944;2022-08-21T04:37:59;101334.53;;;22.38;93.71
55550;BME280;41397;49.972;18.944;2022-08-21T04:43:13;101320.30;;;22.33;94.49
55550;BME280;41397;49.972;18.944;2022-08-21T04:48:27;101311.63;;;22.28;95.33
55550;BME280;41397;49.972;18.944;2022-08-21T04:53:00;101284.06;;;22.18;96.39
55550;BME280;41397;49.972;18.944;2022-08-21T04:53:51;101281.33;;;22.10;96.79
55550;BME280;41397;49.972;18.944;2022-08-21T04:59:12;101309.92;;;22.04;97.63
55550;BME280;41397;49.972;18.944;2022-08-21T05:04:30;101318.18;;;21.97;98.74
55550;BME280;41397;49.972;18.944;2022-08-21T05:09:46;101344.04;;;22.06;99.29
55550;BME280;41397;49.972;18.944;2022-08-21T05:15:00;101357.52;;;22.17;98.64
55550;BME280;41397;49.972;18.944;2022-08-21T05:20:13;101365.14;;;22.23;98.54
55550;BME280;41397;49.972;18.944;2022-08-21T05:23:14;101365.65;;;22.27;98.26
55550;BME280;41397;49.972;18.944;2022-08-21T05:25:28;101364.41;;;22.29;97.95
55550;BME280;41397;49.972;18.944;2022-08-21T05:30:41;101374.97;;;22.34;97.68
55550;BME280;41397;49.972;18.944;2022-08-21T05:35:55;101371.15;;;22.35;98.13
55550;BME280;41397;49.972;18.944;2022-08-21T05:41:09;101375.09;;;22.41;97.71
55550;BME280;41397;49.972;18.944;2022-08-21T05:46:23;101360.95;;;22.42;97.17
55550;BME280;41397;49.972;18.944;2022-08-21T05:51:38;101372.48;;;22.39;97.20
55550;BME280;41397;49.972;18.944;2022-08-21T05:53:28;101368.66;;;22.40;97.02
55550;BME280;41397;49.972;18.944;2022-08-21T05:56:52;101363.44;;;22.37;97.05
55550;BME280;41397;49.972;18.944;2022-08-21T06:02:06;101371.70;;;22.30;97.42
55550;BME280;41397;49.972;18.944;2022-08-21T06:07:21;101379.51;;;22.35;97.41
55550;BME280;41397;49.972;18.944;2022-08-21T06:12:35;101384.49;;;22.39;97.55
55550;BME280;41397;49.972;18.944;2022-08-21T06:17:48;101385.87;;;22.44;97.62
55550;BME280;41397;49.972;18.944;2022-08-21T06:23:03;101383.76;;;22.46;97.51
55550;BME280;41397;49.972;18.944;2022-08-21T06:23:42;101382.86;;;22.45;98.11
55550;BME280;41397;49.972;18.944;2022-08-21T06:28:17;101386.63;;;22.37;97.67
55550;BME280;41397;49.972;18.944;2022-08-21T06:33:30;101396.23;;;22.35;96.56
55550;BME280;41397;49.972;18.944;2022-08-21T06:38:44;101400.26;;;22.32;95.27
55550;BME280;41397;49.972;18.944;2022-08-21T06:43:59;101403.53;;;22.36;94.55
55550;BME280;41397;49.972;18.944;2022-08-21T06:49:13;101408.41;;;22.34;93.49
55550;BME280;41397;49.972;18.944;2022-08-21T06:53:56;101414.68;;;22.36;92.38
55550;BME280;41397;49.972;18.944;2022-08-21T06:54:27;101418.40;;;22.28;92.12
55550;BME280;41397;49.972;18.944;2022-08-21T06:59:40;101415.51;;;22.22;90.90
55550;BME280;41397;49.972;18.944;2022-08-21T07:04:54;101411.95;;;22.28;90.58
55550;BME280;41397;49.972;18.944;2022-08-21T07:10:08;101415.23;;;22.31;89.48
55550;BME280;41397;49.972;18.944;2022-08-21T07:15:22;101422.93;;;22.29;88.17
55550;BME280;41397;49.972;18.944;2022-08-21T07:20:36;101421.39;;;22.27;87.99
55550;BME280;41397;49.972;18.944;2022-08-21T07:24:12;101428.52;;;22.29;88.03
55550;BME280;41397;49.972;18.944;2022-08-21T07:25:49;101427.82;;;22.27;87.76
55550;BME280;41397;49.972;18.944;2022-08-21T07:31:04;101426.11;;;22.26;88.08
55550;BME280;41397;49.972;18.944;2022-08-21T07:36:18;101430.62;;;22.27;87.58
55550;BME280;41397;49.972;18.944;2022-08-21T07:41:32;101440.45;;;22.38;87.70
55550;BME280;41397;49.972;18.944;2022-08-21T07:46:48;101447.74;;;22.39;88.04
55550;BME280;41397;49.972;18.944;2022-08-21T07:52:02;101441.05;;;22.48;87.55
55550;BME280;41397;49.972;18.944;2022-08-21T07:54:26;101445.09;;;22.46;86.87
55550;BME280;41397;49.972;18.944;2022-08-21T07:57:16;101440.85;;;22.50;86.89
55550;BME280;41397;49.972;18.944;2022-08-21T08:02:32;101445.31;;;22.59;86.46
55550;BME280;41397;49.972;18.944;2022-08-21T08:07:46;101431.47;;;22.66;86.23
55550;BME280;41397;49.972;18.944;2022-08-21T08:13:01;101434.43;;;22.64;85.50
55550;BME280;41397;49.972;18.944;2022-08-21T08:18:16;101438.59;;;22.68;85.25
55550;BME280;41397;49.972;18.944;2022-08-21T08:23:30;101423.87;;;22.59;84.15
55550;BME280;41397;49.972;18.944;2022-08-21T08:24:39;101437.81;;;22.59;84.13
55550;BME280;41397;49.972;18.944;2022-08-21T08:28:45;101430.30;;;22.60;83.75
55550;BME280;41397;49.972;18.944;2022-08-21T08:34:00;101435.41;;;22.56;84.48
55550;BME280;41397;49.972;18.944;2022-08-21T08:39:14;101441.72;;;22.50;85.47
55550;BME280;41397;49.972;18.944;2022-08-21T08:44:42;101453.07;;;22.49;86.39
55550;BME280;41397;49.972;18.944;2022-08-21T08:55:02;101459.48;;;22.34;85.95
55550;BME280;41397;49.972;18.944;2022-08-21T08:55:32;101452.36;;;22.32;86.21
55550;BME280;41397;49.972;18.944;2022-08-21T09:00:49;101459.61;;;22.18;85.92
55550;BME280;41397;49.972;18.944;2022-08-21T09:17:11;101479.59;;;21.90;88.33
55550;BME280;41397;49.972;18.944;2022-08-21T09:22:33;101482.64;;;21.81;89.13
55550;BME280;41397;49.972;18.944;2022-08-21T09:25:26;101479.65;;;21.82;89.49
55550;BME280;41397;49.972;18.944;2022-08-21T09:27:48;101474.98;;;21.83;90.21
55550;BME280;41397;49.972;18.944;2022-08-21T09:33:02;101482.59;;;21.89;89.92
55550;BME280;41397;49.972;18.944;2022-08-21T09:38:39;101473.74;;;21.85;90.21
55550;BME280;41397;49.972;18.944;2022-08-21T09:43:52;101484.08;;;21.68;90.48
55550;BME280;41397;49.972;18.944;2022-08-21T09:49:06;101486.73;;;21.62;91.27
55550;BME280;41397;49.972;18.944;2022-08-21T09:54:36;101488.30;;;21.64;91.45
55550;BME280;41397;49.972;18.944;2022-08-21T09:59:45;101477.20;;;21.56;90.36
55550;BME280;41397;49.972;18.944;2022-08-21T10:05:15;101481.95;;;21.47;90.30
55550;BME280;41397;49.972;18.944;2022-08-21T10:10:30;101495.83;;;21.56;90.35
55550;BME280;41397;49.972;18.944;2022-08-21T10:21:23;101489.88;;;21.59;90.33
55550;BME280;41397;49.972;18.944;2022-08-21T10:26:31;101489.56;;;21.54;90.22
55550;BME280;41397;49.972;18.944;2022-08-21T10:26:50;101486.95;;;21.52;90.28
55550;BME280;41397;49.972;18.944;2022-08-21T10:48:29;101498.45;;;21.49;92.48
55550;BME280;41397;49.972;18.944;2022-08-21T10:53:59;101503.48;;;21.54;91.67
55550;BME280;41397;49.972;18.944;2022-08-21T10:56:44;101500.32;;;21.57;91.75
55550;BME280;41397;49.972;18.944;2022-08-21T11:10:15;101483.05;;;21.69;91.14
55550;BME280;41397;49.972;18.944;2022-08-21T11:15:42;101492.39;;;21.77;92.11
55550;BME280;41397;49.972;18.944;2022-08-21T11:21:04;101477.51;;;21.92;92.01
55550;BME280;41397;49.972;18.944;2022-08-21T11:26:33;101485.43;;;22.04;91.45
55550;BME280;41397;49.972;18.944;2022-08-21T11:27:09;101486.50;;;22.03;91.09
55550;BME280;41397;49.972;18.944;2022-08-21T11:31:58;101483.70;;;22.03;90.12
55550;BME280;41397;49.972;18.944;2022-08-21T11:42:44;101484.80;;;22.25;90.19
55550;BME280;41397;49.972;18.944;2022-08-21T11:53:49;101484.92;;;22.31;89.40
55550;BME280;41397;49.972;18.944;2022-08-21T11:57:30;101484.92;;;22.31;89.60
55550;BME280;41397;49.972;18.944;2022-08-21T11:58:56;101486.46;;;22.34;90.67
55550;BME280;41397;49.972;18.944;2022-08-21T12:09:38;101474.52;;;22.48;90.37
55550;BME280;41397;49.972;18.944;2022-08-21T12:26:00;101505.41;;;21.84;87.36
55550;BME280;41397;49.972;18.944;2022-08-21T12:27:53;101505.77;;;21.81;87.56
55550;BME280;41397;49.972;18.944;2022-08-21T12:36:40;101506.27;;;21.54;88.40
55550;BME280;41397;49.972;18.944;2022-08-21T12:42:04;101505.07;;;21.48;88.86
55550;BME280;41397;49.972;18.944;2022-08-21T12:52:54;101503.70;;;21.27;88.76
55550;BME280;41397;49.972;18.944;2022-08-21T12:58:54;101505.49;;;21.20;89.87
55550;BME280;41397;49.972;18.944;2022-08-21T13:03:37;101505.32;;;21.14;88.32
55550;BME280;41397;49.972;18.944;2022-08-21T13:08:56;101511.66;;;20.83;87.43
55550;BME280;41397;49.972;18.944;2022-08-21T13:14:22;101506.10;;;20.67;87.71
55550;BME280;41397;49.972;18.944;2022-08-21T13:19:36;101504.73;;;20.63;88.31
55550;BME280;41397;49.972;18.944;2022-08-21T13:24:50;101501.22;;;20.44;88.74
55550;BME280;41397;49.972;18.944;2022-08-21T13:29:13;101508.35;;;20.38;89.29
55550;BME280;41397;49.972;18.944;2022-08-21T13:30:12;101515.63;;;20.39;89.10
55550;BME280;41397;49.972;18.944;2022-08-21T13:35:36;101523.80;;;20.33;89.73
55550;BME280;41397;49.972;18.944;2022-08-21T13:40:58;101523.09;;;20.31;89.93
55550;BME280;41397;49.972;18.944;2022-08-21T13:46:14;101528.65;;;20.23;89.38
55550;BME280;41397;49.972;18.944;2022-08-21T13:51:29;101530.73;;;20.29;90.05
55550;BME280;41397;49.972;18.944;2022-08-21T13:56:45;101530.71;;;20.21;89.57
55550;BME280;41397;49.972;18.944;2022-08-21T13:59:31;101532.27;;;20.15;89.80
55550;BME280;41397;49.972;18.944;2022-08-21T14:07:33;101529.45;;;19.99;89.79
55550;BME280;41397;49.972;18.944;2022-08-21T14:12:53;101536.20;;;19.88;89.73
55550;BME280;41397;49.972;18.944;2022-08-21T14:18:13;101531.01;;;19.93;90.17
55550;BME280;41397;49.972;18.944;2022-08-21T14:23:28;101521.79;;;19.84;91.55
55550;BME280;41397;49.972;18.944;2022-08-21T14:28:42;101532.16;;;19.74;89.73
55550;BME280;41397;49.972;18.944;2022-08-21T14:29:45;101529.73;;;19.71;90.44
55550;BME280;41397;49.972;18.944;2022-08-21T14:33:57;101529.20;;;19.67;89.71
55550;BME280;41397;49.972;18.944;2022-08-21T14:39:11;101535.06;;;19.64;89.22
55550;BME280;41397;49.972;18.944;2022-08-21T14:44:25;101536.41;;;19.60;89.74
55550;BME280;41397;49.972;18.944;2022-08-21T14:49:39;101541.11;;;19.60;89.85
55550;BME280;41397;49.972;18.944;2022-08-21T14:54:53;101543.09;;;19.67;89.20
55550;BME280;41397;49.972;18.944;2022-08-21T15:00:00;101556.88;;;19.59;89.07
55550;BME280;41397;49.972;18.944;2022-08-21T15:00:17;101552.02;;;19.61;89.90
55550;BME280;41397;49.972;18.944;2022-08-21T15:05:31;101566.45;;;19.65;89.04
55550;BME280;41397;49.972;18.944;2022-08-21T15:10:45;101576.58;;;19.74;89.81
55550;BME280;41397;49.972;18.944;2022-08-21T15:15:59;101579.91;;;19.86;89.37
55550;BME280;41397;49.972;18.944;2022-08-21T15:21:13;101584.82;;;19.92;88.91
55550;BME280;41397;49.972;18.944;2022-08-21T15:26:27;101586.57;;;20.01;88.73
55550;BME280;41397;49.972;18.944;2022-08-21T15:30:14;101591.63;;;20.06;88.78
55550;BME280;41397;49.972;18.944;2022-08-21T15:37:06;101595.42;;;20.05;87.31
55550;BME280;41397;49.972;18.944;2022-08-21T15:42:22;101607.24;;;20.07;88.90
55550;BME280;41397;49.972;18.944;2022-08-21T15:47:38;101608.16;;;19.73;86.53
55550;BME280;41397;49.972;18.944;2022-08-21T15:52:55;101608.50;;;19.70;87.57
55550;BME280;41397;49.972;18.944;2022-08-21T15:58:15;101615.97;;;19.78;88.10
55550;BME280;41397;49.972;18.944;2022-08-21T16:00:32;101613.22;;;19.86;89.64
55550;BME280;41397;49.972;18.944;2022-08-21T16:03:31;101608.91;;;19.91;89.07
55550;BME280;41397;49.972;18.944;2022-08-21T16:08:46;101604.28;;;20.00;88.84
55550;BME280;41397;49.972;18.944;2022-08-21T16:13:59;101602.19;;;20.02;87.64
55550;BME280;41397;49.972;18.944;2022-08-21T16:19:13;101604.78;;;19.95;86.63
55550;BME280;41397;49.972;18.944;2022-08-21T16:24:27;101603.16;;;19.85;86.25
55550;BME280;41397;49.972;18.944;2022-08-21T16:29:44;101602.49;;;19.57;86.70
55550;BME280;41397;49.972;18.944;2022-08-21T16:30:49;101597.09;;;19.55;87.35
55550;BME280;41397;49.972;18.944;2022-08-21T16:35:01;101595.14;;;19.47;87.22
55550;BME280;41397;49.972;18.944;2022-08-21T16:40:17;101595.81;;;19.41;87.85
55550;BME280;41397;49.972;18.944;2022-08-21T16:45:34;101605.56;;;19.45;90.61
55550;BME280;41397;49.972;18.944;2022-08-21T16:50:48;101595.37;;;19.54;91.05
55550;BME280;41397;49.972;18.944;2022-08-21T16:56:03;101591.44;;;19.65;90.63
55550;BME280;41397;49.972;18.944;2022-08-21T17:01:06;101584.41;;;19.79;91.31
55550;BME280;41397;49.972;18.944;2022-08-21T17:01:24;101584.56;;;19.77;90.80
55550;BME280;41397;49.972;18.944;2022-08-21T17:06:39;101589.13;;;19.86;89.96
55550;BME280;41397;49.972;18.944;2022-08-21T17:11:53;101591.73;;;19.88;88.66
55550;BME280;41397;49.972;18.944;2022-08-21T17:17:08;101567.08;;;19.85;88.79
55550;BME280;41397;49.972;18.944;2022-08-21T17:22:23;101552.98;;;19.70;90.43
55550;BME280;41397;49.972;18.944;2022-08-21T17:27:43;101562.70;;;19.74;91.74
55550;BME280;41397;49.972;18.944;2022-08-21T17:31:21;101555.08;;;19.76;89.70
55550;BME280;41397;49.972;18.944;2022-08-21T17:32:58;101557.33;;;19.72;88.82
55550;BME280;41397;49.972;18.944;2022-08-21T17:38:13;101559.05;;;19.73;88.98
55550;BME280;41397;49.972;18.944;2022-08-21T17:43:27;101559.77;;;19.76;89.53
55550;BME280;41397;49.972;18.944;2022-08-21T17:48:41;101558.01;;;19.74;88.36
55550;BME280;41397;49.972;18.944;2022-08-21T17:54:02;101581.94;;;19.67;89.93
55550;BME280;41397;49.972;18.944;2022-08-21T17:59:15;101593.77;;;19.78;90.11
55550;BME280;41397;49.972;18.944;2022-08-21T18:01:38;101592.03;;;19.77;89.02
55550;BME280;41397;49.972;18.944;2022-08-21T18:04:29;101607.30;;;19.72;88.88
55550;BME280;41397;49.972;18.944;2022-08-21T18:09:43;101617.69;;;19.70;88.62
55550;BME280;41397;49.972;18.944;2022-08-21T18:14:59;101630.78;;;19.60;88.50
55550;BME280;41397;49.972;18.944;2022-08-21T18:20:15;101632.51;;;19.61;89.22
55550;BME280;41397;49.972;18.944;2022-08-21T18:25:30;101635.84;;;19.65;90.05
55550;BME280;41397;49.972;18.944;2022-08-21T18:30:46;101630.52;;;19.71;90.47
55550;BME280;41397;49.972;18.944;2022-08-21T18:31:52;101627.22;;;19.68;89.20
55550;BME280;41397;49.972;18.944;2022-08-21T18:36:00;101624.29;;;19.78;90.88
55550;BME280;41397;49.972;18.944;2022-08-21T18:41:14;101607.37;;;19.89;90.95
55550;BME280;41397;49.972;18.944;2022-08-21T18:46:27;101614.77;;;19.80;88.49
55550;BME280;41397;49.972;18.944;2022-08-21T18:51:42;101606.25;;;19.73;88.79
55550;BME280;41397;49.972;18.944;2022-08-21T18:56:56;101606.06;;;19.75;89.40
55550;BME280;41397;49.972;18.944;2022-08-21T19:02:06;101604.37;;;19.82;89.92
55550;BME280;41397;49.972;18.944;2022-08-21T19:02:21;101606.29;;;19.82;90.20
55550;BME280;41397;49.972;18.944;2022-08-21T19:07:35;101592.44;;;19.90;91.09
55550;BME280;41397;49.972;18.944;2022-08-21T19:12:50;101592.81;;;19.95;90.58
55550;BME280;41397;49.972;18.944;2022-08-21T19:18:13;101590.92;;;20.04;90.28
55550;BME280;41397;49.972;18.944;2022-08-21T19:23:26;101591.78;;;20.04;89.41
55550;BME280;41397;49.972;18.944;2022-08-21T19:28:46;101586.75;;;20.08;89.03
55550;BME280;41397;49.972;18.944;2022-08-21T19:32:20;101579.66;;;20.05;88.36
55550;BME280;41397;49.972;18.944;2022-08-21T19:34:03;101583.45;;;20.04;87.93
55550;BME280;41397;49.972;18.944;2022-08-21T19:39:18;101577.38;;;20.01;88.80
55550;BME280;41397;49.972;18.944;2022-08-21T19:44:31;101571.09;;;19.90;88.00
55550;BME280;41397;49.972;18.944;2022-08-21T19:49:53;101564.80;;;19.80;88.31
55550;BME280;41397;49.972;18.944;2022-08-21T19:55:08;101567.99;;;19.59;88.26
55550;BME280;41397;49.972;18.944;2022-08-21T20:00:22;101566.60;;;19.63;89.43
55550;BME280;41397;49.972;18.944;2022-08-21T20:02:34;101567.65;;;19.62;89.68
55550;BME280;41397;49.972;18.944;2022-08-21T20:05:36;101560.91;;;19.65;90.04
55550;BME280;41397;49.972;18.944;2022-08-21T20:10:54;101563.04;;;19.71;89.79
55550;BME280;41397;49.972;18.944;2022-08-21T20:16:12;101558.88;;;19.75;90.26
55550;BME280;41397;49.972;18.944;2022-08-21T20:21:28;101554.74;;;19.79;89.65
55550;BME280;41397;49.972;18.944;2022-08-21T20:26:44;101551.94;;;19.71;88.95
55550;BME280;41397;49.972;18.944;2022-08-21T20:31:58;101548.63;;;19.67;89.02
55550;BME280;41397;49.972;18.944;2022-08-21T20:32:49;101549.64;;;19.66;88.93
55550;BME280;41397;49.972;18.944;2022-08-21T20:37:12;101542.30;;;19.57;89.00
55550;BME280;41397;49.972;18.944;2022-08-21T20:42:26;101541.25;;;19.58;89.72
55550;BME280;41397;49.972;18.944;2022-08-21T20:47:39;101532.41;;;19.55;89.67
55550;BME280;41397;49.972;18.944;2022-08-21T20:53:04;101538.10;;;19.53;89.70
55550;BME280;41397;49.972;18.944;2022-08-21T21:03:59;101520.44;;;19.54;92.28
55550;BME280;41397;49.972;18.944;2022-08-21T21:09:13;101522.39;;;19.62;91.18
55550;BME280;41397;49.972;18.944;2022-08-21T21:20:03;101496.45;;;19.45;90.90
55550;BME280;41397;49.972;18.944;2022-08-21T21:25:32;101501.39;;;19.25;91.44
55550;BME280;41397;49.972;18.944;2022-08-21T21:30:47;101504.75;;;19.02;92.47
55550;BME280;41397;49.972;18.944;2022-08-21T21:33:30;101511.42;;;18.92;93.88
55550;BME280;41397;49.972;18.944;2022-08-21T21:36:10;101521.09;;;18.88;94.60
55550;BME280;41397;49.972;18.944;2022-08-21T21:41:33;101521.03;;;18.79;96.00
55550;BME280;41397;49.972;18.944;2022-08-21T21:52:24;101520.49;;;18.76;97.28
55550;BME280;41397;49.972;18.944;2022-08-21T22:03:14;101526.58;;;18.79;98.38
55550;BME280;41397;49.972;18.944;2022-08-21T22:03:56;101522.08;;;18.78;98.55
55550;BME280;41397;49.972;18.944;2022-08-21T22:08:44;101515.88;;;18.84;98.79
55550;BME280;41397;49.972;18.944;2022-08-21T22:14:10;101501.44;;;18.99;98.70
55550;BME280;41397;49.972;18.944;2022-08-21T22:19:30;101501.84;;;19.12;97.79
55550;BME280;41397;49.972;18.944;2022-08-21T22:25:05;101506.04;;;19.16;97.00
55550;BME280;41397;49.972;18.944;2022-08-21T22:35:41;101496.90;;;19.24;96.36
55550;BME280;41397;49.972;18.944;2022-08-21T22:49:54;101497.53;;;19.18;96.65
55550;BME280;41397;49.972;18.944;2022-08-21T22:51:49;101489.55;;;19.15;96.84
55550;BME280;41397;49.972;18.944;2022-08-21T22:57:11;101489.59;;;19.23;96.99
55550;BME280;41397;49.972;18.944;2022-08-21T23:02:36;101480.06;;;19.25;97.80
55550;BME280;41397;49.972;18.944;2022-08-21T23:07:50;101474.07;;;19.38;99.09
55550;BME280;41397;49.972;18.944;2022-08-21T23:13:08;101474.65;;;19.58;98.53
55550;BME280;41397;49.972;18.944;2022-08-21T23:18:33;101475.51;;;19.59;96.53
55550;BME280;41397;49.972;18.944;2022-08-21T23:20:22;101468.77;;;19.61;96.33
55550;BME280;41397;49.972;18.944;2022-08-21T23:29:23;101480.20;;;19.58;96.05
55550;BME280;41397;49.972;18.944;2022-08-21T23:45:38;101472.22;;;19.55;96.14
55550;BME280;41397;49.972;18.944;2022-08-21T23:51:07;101474.13;;;19.55;95.95
